sensor_id;sensor_type;location;lat;lon;timestamp;pressure;altitude;pressure_sealevel;temperature
62932;BMP280;49037;41.898;25.004;2022-07-29T09:26:42;96617.72;;;31.47
62932;BMP280;49037;41.898;25.004;2022-07-29T09:29:14;96601.47;;;31.84
62932;BMP280;49037;41.898;25.004;2022-07-29T09:31:42;96618.16;;;31.98
62932;BMP280;49037;41.898;25.004;2022-07-29T09:34:35;96613.53;;;32.26
62932;BMP280;49037;41.898;25.004;2022-07-29T09:37:02;96609.22;;;31.99
62932;BMP280;49037;41.898;25.004;2022-07-29T09:54:52;96612.22;;;32.43
62932;BMP280;49037;41.898;25.004;2022-07-29T09:57:28;96613.47;;;32.16
62932;BMP280;49037;41.898;25.004;2022-07-29T10:00:29;96605.31;;;32.46
62932;BMP280;49037;41.898;25.004;2022-07-29T10:03:23;96610.69;;;32.12
62932;BMP280;49037;41.898;25.004;2022-07-29T10:14:14;96590.34;;;32.94
62932;BMP280;49037;41.898;25.004;2022-07-29T10:22:20;96593.00;;;32.70
62932;BMP280;49037;41.898;25.004;2022-07-29T10:25:09;96585.44;;;32.81
62932;BMP280;49037;41.898;25.004;2022-07-29T10:43:31;96576.44;;;32.82
62932;BMP280;49037;41.898;25.004;2022-07-29T10:46:39;96581.44;;;33.37
62932;BMP280;49037;41.898;25.004;2022-07-29T11:00:32;96555.03;;;33.00
62932;BMP280;49037;41.898;25.004;2022-07-29T11:41:33;96541.25;;;33.59
62932;BMP280;49037;41.898;25.004;2022-07-29T16:30:02;96411.25;;;31.51
62932;BMP280;49037;41.898;25.004;2022-07-29T16:33:09;96413.28;;;31.43
62932;BMP280;49037;41.898;25.004;2022-07-29T16:36:10;96418.13;;;31.42
62932;BMP280;49037;41.898;25.004;2022-07-29T16:39:18;96409.78;;;31.34
62932;BMP280;49037;41.898;25.004;2022-07-29T18:27:29;96501.22;;;27.49
62932;BMP280;49037;41.898;25.004;2022-07-29T19:53:55;96506.75;;;24.87
62932;BMP280;49037;41.898;25.004;2022-07-29T19:57:05;96528.47;;;24.83
62932;BMP280;49037;41.898;25.004;2022-07-29T20:02:25;96525.22;;;24.69
62932;BMP280;49037;41.898;25.004;2022-07-29T20:05:13;96523.66;;;24.64
62932;BMP280;49037;41.898;25.004;2022-07-29T20:07:38;96524.22;;;24.61
62932;BMP280;49037;41.898;25.004;2022-07-29T20:10:17;96527.38;;;24.54
62932;BMP280;49037;41.898;25.004;2022-07-29T20:13:17;96518.00;;;24.41
62932;BMP280;49037;41.898;25.004;2022-07-29T20:15:59;96528.31;;;24.43
62932;BMP280;49037;41.898;25.004;2022-07-29T20:18:27;96520.50;;;24.35
62932;BMP280;49037;41.898;25.004;2022-07-29T20:20:53;96531.91;;;24.30
62932;BMP280;49037;41.898;25.004;2022-07-29T20:26:02;96535.03;;;24.23
62932;BMP280;49037;41.898;25.004;2022-07-29T20:28:30;96525.78;;;23.97
62932;BMP280;49037;41.898;25.004;2022-07-29T20:30:59;96528.28;;;23.91
62932;BMP280;49037;41.898;25.004;2022-07-29T20:33:26;96532.41;;;23.92
62932;BMP280;49037;41.898;25.004;2022-07-29T20:35:51;96522.50;;;23.83
62932;BMP280;49037;41.898;25.004;2022-07-29T20:38:26;96520.28;;;23.80
62932;BMP280;49037;41.898;25.004;2022-07-29T20:41:15;96514.75;;;23.78
62932;BMP280;49037;41.898;25.004;2022-07-29T20:44:04;96532.28;;;23.73
62932;BMP280;49037;41.898;25.004;2022-07-29T20:46:53;96521.06;;;23.65
62932;BMP280;49037;41.898;25.004;2022-07-29T21:58:19;96547.00;;;23.66
62932;BMP280;49037;41.898;25.004;2022-07-29T22:00:49;96545.09;;;23.53
62932;BMP280;49037;41.898;25.004;2022-07-29T22:03:30;96559.38;;;23.52
62932;BMP280;49037;41.898;25.004;2022-07-29T22:06:01;96555.50;;;23.41
62932;BMP280;49037;41.898;25.004;2022-07-29T22:08:27;96553.19;;;23.36
62932;BMP280;49037;41.898;25.004;2022-07-29T22:10:55;96558.31;;;23.28
62932;BMP280;49037;41.898;25.004;2022-07-29T22:13:21;96562.06;;;23.21
62932;BMP280;49037;41.898;25.004;2022-07-29T22:15:46;96562.88;;;23.08
62932;BMP280;49037;41.898;25.004;2022-07-29T22:18:12;96554.81;;;22.95
62932;BMP280;49037;41.898;25.004;2022-07-29T22:20:37;96562.69;;;22.89
62932;BMP280;49037;41.898;25.004;2022-07-29T22:23:03;96568.75;;;22.87
62932;BMP280;49037;41.898;25.004;2022-07-29T22:25:28;96564.34;;;22.81
62932;BMP280;49037;41.898;25.004;2022-07-29T22:27:53;96565.47;;;22.76
62932;BMP280;49037;41.898;25.004;2022-07-29T22:30:19;96552.94;;;22.55
62932;BMP280;49037;41.898;25.004;2022-07-29T22:32:44;96559.50;;;22.50
62932;BMP280;49037;41.898;25.004;2022-07-29T22:35:10;96555.91;;;22.46
62932;BMP280;49037;41.898;25.004;2022-07-29T22:37:35;96554.94;;;22.40
62932;BMP280;49037;41.898;25.004;2022-07-29T22:40:02;96557.06;;;22.28
62932;BMP280;49037;41.898;25.004;2022-07-29T22:42:27;96557.91;;;22.17
62932;BMP280;49037;41.898;25.004;2022-07-29T22:44:53;96556.78;;;22.08
62932;BMP280;49037;41.898;25.004;2022-07-29T22:49:53;96561.03;;;22.11
62932;BMP280;49037;41.898;25.004;2022-07-29T22:52:19;96559.66;;;22.10
62932;BMP280;49037;41.898;25.004;2022-07-29T22:56:49;96554.50;;;22.03
62932;BMP280;49037;41.898;25.004;2022-07-29T22:59:21;96550.19;;;21.98
62932;BMP280;49037;41.898;25.004;2022-07-29T23:01:47;96551.97;;;21.94
62932;BMP280;49037;41.898;25.004;2022-07-29T23:04:13;96555.63;;;21.98
62932;BMP280;49037;41.898;25.004;2022-07-29T23:06:39;96551.00;;;21.87
62932;BMP280;49037;41.898;25.004;2022-07-29T23:09:45;96543.94;;;21.82
62932;BMP280;49037;41.898;25.004;2022-07-29T23:21:53;96536.53;;;22.25
62932;BMP280;49037;41.898;25.004;2022-07-29T23:24:23;96532.56;;;21.99
62932;BMP280;49037;41.898;25.004;2022-07-29T23:29:54;96532.66;;;21.88
62932;BMP280;49037;41.898;25.004;2022-07-29T23:33:03;96525.63;;;21.70
62932;BMP280;49037;41.898;25.004;2022-07-29T23:35:38;96529.03;;;21.70
62932;BMP280;49037;41.898;25.004;2022-07-29T23:38:04;96533.09;;;21.69
62932;BMP280;49037;41.898;25.004;2022-07-29T23:40:30;96533.19;;;21.58
62932;BMP280;49037;41.898;25.004;2022-07-29T23:42:56;96526.34;;;21.57
62932;BMP280;49037;41.898;25.004;2022-07-29T23:45:22;96526.84;;;21.53
62932;BMP280;49037;41.898;25.004;2022-07-29T23:48:17;96527.47;;;21.52
62932;BMP280;49037;41.898;25.004;2022-07-29T23:50:45;96530.84;;;21.52
62932;BMP280;49037;41.898;25.004;2022-07-29T23:53:23;96533.38;;;21.48
62932;BMP280;49037;41.898;25.004;2022-07-29T23:55:48;96518.47;;;21.36
62932;BMP280;49037;41.898;25.004;2022-07-29T23:58:18;96511.03;;;21.36
